Gildeskaal — LLDI — position and weather

sailwx.info

Track history (hours):
 
Tides and Currents Weather Stations Pressure Air Temp Water Temp Dewpoint Dewpoint Depression Visibility Wind Speed Wind Dir Waves Ship Positions

Gildeskaal

Last reported at 2014-Sep-15 12:33 UTC. Time now 2014-Sep-16 13:28 UTC.
Position N 66°24' E 012°57'.

Length 52 m; draft 3.2 m.

Type: Ship. MMSI: 259680000.

Date/timePositionNaut miles runAvg speedWind from/ knotsBaromVisibWave heightAir tempDewpointWater temp
2014-Sep-15 12:33N 66°24' E 012°57'50 6.8
2014-Sep-15 05:10N 67°07' E 013°59'1 0.9
2014-Sep-15 04:07N 67°08' E 013°59'0 0.0
2014-Sep-14 19:15N 67°08' E 013°59'3 1.8
2014-Sep-14 17:20N 67°05' E 014°02'0 0.0
2014-Sep-14 15:09N 67°05' E 014°01'3 5.3
2014-Sep-14 14:31N 67°08' E 013°59'2 1.8
2014-Sep-14 13:32N 67°06' E 013°59'0 0.1
2014-Sep-14 08:04N 67°06' E 013°59'1 1.1
2014-Sep-14 07:31N 67°07' E 013°59'1 0.0
2014-Sep-13 15:28N 67°06' E 013°59'1 0.1
2014-Sep-13 09:28N 67°06' E 013°59'2 1.8
2014-Sep-13 08:32N 67°08' E 013°59'2 1.6
2014-Sep-13 07:31N 67°07' E 013°59'1 1.2
2014-Sep-13 06:22N 67°05' E 013°60'3 3.3
2014-Sep-13 05:29N 67°08' E 013°59'0 0.0
2014-Sep-13 04:13N 67°08' E 013°59'0 0.0
2014-Sep-13 03:20N 67°08' E 013°59'0 0.0
2014-Sep-13 02:32N 67°08' E 013°59'0 0.0
2014-Sep-13 01:33N 67°08' E 013°59'0 0.0
2014-Sep-12 23:31N 67°08' E 013°59'0 0.0
2014-Sep-12 19:25N 67°08' E 013°59'3 2.4
2014-Sep-12 18:11N 67°05' E 013°60'2 2.9
2014-Sep-12 17:33N 67°07' E 013°59'1 0.7
2014-Sep-12 15:30N 67°06' E 013°59'0 0.1
2014-Sep-12 13:16N 67°06' E 013°59'2 3.3
2014-Sep-12 12:33N 67°08' E 013°59'0 0.0
2014-Sep-12 11:33N 67°08' E 013°59'2 1.0
2014-Sep-12 09:29N 67°06' E 013°58'2 2.2
2014-Sep-12 08:33N 67°08' E 013°59'3 2.4
2014-Sep-12 07:30N 67°06' E 013°59'1 0.3
2014-Sep-12 05:12N 67°06' E 013°59'2 0.9
2014-Sep-12 03:04N 67°08' E 013°59'0 0.0
2014-Sep-12 01:11N 67°08' E 013°59'0 0.0
2014-Sep-12 00:12N 67°08' E 013°59'0 0.0
2014-Sep-11 23:19N 67°08' E 013°59'0 0.0
2014-Sep-11 19:30N 67°08' E 013°59'3 2.2
2014-Sep-11 18:10N 67°05' E 013°60'2 3.8
2014-Sep-11 17:33N 67°08' E 013°59'2 1.4
2014-Sep-11 16:25N 67°06' E 013°59'2 2.4
2014-Sep-11 15:32N 67°08' E 013°59'1 0.6
2014-Sep-11 13:14N 67°07' E 013°59'1 2.1
2014-Sep-11 12:33N 67°08' E 013°59'0 0.0
2014-Sep-11 11:33N 67°08' E 013°59'2 0.9
2014-Sep-11 09:29N 67°06' E 013°59'2 1.9
2014-Sep-11 08:31N 67°08' E 013°59'2 1.9
2014-Sep-11 07:32N 67°06' E 013°59'1 0.5
2014-Sep-11 05:21N 67°05' E 013°60'3 3.6
2014-Sep-11 04:33N 67°08' E 013°59'0 0.0
2014-Sep-11 03:28N 67°08' E 013°59'0 0.0
2014-Sep-11 02:28N 67°08' E 013°59'0 0.0
2014-Sep-11 01:17N 67°08' E 013°59'0 0.0
2014-Sep-10 19:17N 67°08' E 013°59'3 3.0
2014-Sep-10 18:19N 67°05' E 013°60'2 2.9
2014-Sep-10 17:33N 67°07' E 013°59'2 2.3
2014-Sep-10 16:33N 67°05' E 014°00'3 3.0
2014-Sep-10 15:33N 67°08' E 013°59'2 1.0
2014-Sep-10 13:16N 67°06' E 013°59'1 0.1
2014-Sep-10 09:27N 67°07' E 013°59'1 0.3
2014-Sep-10 05:21N 67°05' E 014°00'3 2.3
2014-Sep-10 04:04N 67°08' E 013°59'0 0.0
2014-Sep-09 22:14N 67°08' E 013°59'0 0.0
2014-Sep-09 21:21N 67°08' E 013°59'0 0.0
2014-Sep-09 19:30N 67°08' E 013°59'1 0.1
2014-Sep-09 05:30N 67°07' E 013°59'1 0.9
2014-Sep-09 04:25N 67°08' E 013°59'0 0.0
2014-Sep-09 00:31N 67°08' E 013°59'0 0.0
2014-Sep-08 23:29N 67°08' E 013°59'0 0.0
2014-Sep-08 22:11N 67°08' E 013°59'0 0.0
2014-Sep-08 19:27N 67°08' E 013°59'2 1.5
2014-Sep-08 18:09N 67°06' E 013°59'1 0.3
2014-Sep-08 16:33N 67°07' E 013°59'1 1.2
2014-Sep-08 15:22N 67°08' E 013°59'2 0.3
2014-Sep-08 09:32N 67°07' E 013°59'1 0.3
2014-Sep-08 05:20N 67°05' E 013°60'3 3.5
2014-Sep-08 04:30N 67°08' E 013°59'0 0.0
2014-Sep-08 03:25N 67°08' E 013°59'0 0.0
2014-Sep-08 02:33N 67°08' E 013°59'0 0.0
2014-Sep-08 01:31N 67°08' E 013°59'0 0.0
2014-Sep-08 00:29N 67°08' E 013°59'0 0.0
2014-Sep-07 23:32N 67°08' E 013°59'0 0.0
2014-Sep-07 21:33N 67°08' E 013°59'0 0.0
2014-Sep-07 20:30N 67°08' E 013°59'0 0.0
2014-Sep-07 19:31N 67°08' E 013°59'3 1.4
2014-Sep-07 17:18N 67°05' E 014°00'2 2.0
2014-Sep-07 16:32N 67°07' E 013°59'1 0.3
2014-Sep-07 13:32N 67°08' E 013°59'1 0.2
2014-Sep-07 08:05N 67°06' E 013°59'0 0.7
2014-Sep-07 07:33N 67°07' E 013°59'0 0.0
2014-Sep-06 15:23N 67°07' E 013°59'0 0.1
2014-Sep-06 09:28N 67°06' E 013°59'2 1.8
2014-Sep-06 08:29N 67°08' E 013°59'1 0.8
2014-Sep-06 07:32N 67°07' E 013°59'1 0.9
2014-Sep-06 06:13N 67°06' E 013°59'2 2.4
2014-Sep-06 05:31N 67°08' E 013°58'8 7.9
2014-Sep-06 04:33N 67°14' E 014°10'9 9.3
2014-Sep-06 03:33N 67°21' E 014°26'  
Track history (hours):
 
Tides and Currents Weather Stations Pressure Air Temp Water Temp Dewpoint Dewpoint Depression Visibility Wind Speed Wind Dir Waves Ship Positions

Gildeskaal

Last reported at 2014-Sep-15 12:33 UTC. Time now 2014-Sep-16 13:28 UTC.
Position N 66°24' E 012°57'.

Length 52 m; draft 3.2 m.

Type: Ship. MMSI: 259680000.

Date/timePositionNaut miles runAvg speedWind from/ knotsBaromVisibWave heightAir tempDewpointWater temp
2014-Sep-15 12:33N 66°24' E 012°57'50 6.8
2014-Sep-15 05:10N 67°07' E 013°59'1 0.9
2014-Sep-15 04:07N 67°08' E 013°59'0 0.0
2014-Sep-14 19:15N 67°08' E 013°59'3 1.8
2014-Sep-14 17:20N 67°05' E 014°02'0 0.0
2014-Sep-14 15:09N 67°05' E 014°01'3 5.3
2014-Sep-14 14:31N 67°08' E 013°59'2 1.8
2014-Sep-14 13:32N 67°06' E 013°59'0 0.1
2014-Sep-14 08:04N 67°06' E 013°59'1 1.1
2014-Sep-14 07:31N 67°07' E 013°59'1 0.0
2014-Sep-13 15:28N 67°06' E 013°59'1 0.1
2014-Sep-13 09:28N 67°06' E 013°59'2 1.8
2014-Sep-13 08:32N 67°08' E 013°59'2 1.6
2014-Sep-13 07:31N 67°07' E 013°59'1 1.2
2014-Sep-13 06:22N 67°05' E 013°60'3 3.3
2014-Sep-13 05:29N 67°08' E 013°59'0 0.0
2014-Sep-13 04:13N 67°08' E 013°59'0 0.0
2014-Sep-13 03:20N 67°08' E 013°59'0 0.0
2014-Sep-13 02:32N 67°08' E 013°59'0 0.0
2014-Sep-13 01:33N 67°08' E 013°59'0 0.0
2014-Sep-12 23:31N 67°08' E 013°59'0 0.0
2014-Sep-12 19:25N 67°08' E 013°59'3 2.4
2014-Sep-12 18:11N 67°05' E 013°60'2 2.9
2014-Sep-12 17:33N 67°07' E 013°59'1 0.7
2014-Sep-12 15:30N 67°06' E 013°59'0 0.1
2014-Sep-12 13:16N 67°06' E 013°59'2 3.3
2014-Sep-12 12:33N 67°08' E 013°59'0 0.0
2014-Sep-12 11:33N 67°08' E 013°59'2 1.0
2014-Sep-12 09:29N 67°06' E 013°58'2 2.2
2014-Sep-12 08:33N 67°08' E 013°59'3 2.4
2014-Sep-12 07:30N 67°06' E 013°59'1 0.3
2014-Sep-12 05:12N 67°06' E 013°59'2 0.9
2014-Sep-12 03:04N 67°08' E 013°59'0 0.0
2014-Sep-12 01:11N 67°08' E 013°59'0 0.0
2014-Sep-12 00:12N 67°08' E 013°59'0 0.0
2014-Sep-11 23:19N 67°08' E 013°59'0 0.0
2014-Sep-11 19:30N 67°08' E 013°59'3 2.2
2014-Sep-11 18:10N 67°05' E 013°60'2 3.8
2014-Sep-11 17:33N 67°08' E 013°59'2 1.4
2014-Sep-11 16:25N 67°06' E 013°59'2 2.4
2014-Sep-11 15:32N 67°08' E 013°59'1 0.6
2014-Sep-11 13:14N 67°07' E 013°59'1 2.1
2014-Sep-11 12:33N 67°08' E 013°59'0 0.0
2014-Sep-11 11:33N 67°08' E 013°59'2 0.9
2014-Sep-11 09:29N 67°06' E 013°59'2 1.9
2014-Sep-11 08:31N 67°08' E 013°59'2 1.9
2014-Sep-11 07:32N 67°06' E 013°59'1 0.5
2014-Sep-11 05:21N 67°05' E 013°60'3 3.6
2014-Sep-11 04:33N 67°08' E 013°59'0 0.0
2014-Sep-11 03:28N 67°08' E 013°59'0 0.0
2014-Sep-11 02:28N 67°08' E 013°59'0 0.0
2014-Sep-11 01:17N 67°08' E 013°59'0 0.0
2014-Sep-10 19:17N 67°08' E 013°59'3 3.0
2014-Sep-10 18:19N 67°05' E 013°60'2 2.9
2014-Sep-10 17:33N 67°07' E 013°59'2 2.3
2014-Sep-10 16:33N 67°05' E 014°00'3 3.0
2014-Sep-10 15:33N 67°08' E 013°59'2 1.0
2014-Sep-10 13:16N 67°06' E 013°59'1 0.1
2014-Sep-10 09:27N 67°07' E 013°59'1 0.3
2014-Sep-10 05:21N 67°05' E 014°00'3 2.3
2014-Sep-10 04:04N 67°08' E 013°59'0 0.0
2014-Sep-09 22:14N 67°08' E 013°59'0 0.0
2014-Sep-09 21:21N 67°08' E 013°59'0 0.0
2014-Sep-09 19:30N 67°08' E 013°59'1 0.1
2014-Sep-09 05:30N 67°07' E 013°59'1 0.9
2014-Sep-09 04:25N 67°08' E 013°59'0 0.0
2014-Sep-09 00:31N 67°08' E 013°59'0 0.0
2014-Sep-08 23:29N 67°08' E 013°59'0 0.0
2014-Sep-08 22:11N 67°08' E 013°59'0 0.0
2014-Sep-08 19:27N 67°08' E 013°59'2 1.5
2014-Sep-08 18:09N 67°06' E 013°59'1 0.3
2014-Sep-08 16:33N 67°07' E 013°59'1 1.2
2014-Sep-08 15:22N 67°08' E 013°59'2 0.3
2014-Sep-08 09:32N 67°07' E 013°59'1 0.3
2014-Sep-08 05:20N 67°05' E 013°60'3 3.5
2014-Sep-08 04:30N 67°08' E 013°59'0 0.0
2014-Sep-08 03:25N 67°08' E 013°59'0 0.0
2014-Sep-08 02:33N 67°08' E 013°59'0 0.0
2014-Sep-08 01:31N 67°08' E 013°59'0 0.0
2014-Sep-08 00:29N 67°08' E 013°59'0 0.0
2014-Sep-07 23:32N 67°08' E 013°59'0 0.0
2014-Sep-07 21:33N 67°08' E 013°59'0 0.0
2014-Sep-07 20:30N 67°08' E 013°59'0 0.0
2014-Sep-07 19:31N 67°08' E 013°59'3 1.4
2014-Sep-07 17:18N 67°05' E 014°00'2 2.0
2014-Sep-07 16:32N 67°07' E 013°59'1 0.3
2014-Sep-07 13:32N 67°08' E 013°59'1 0.2
2014-Sep-07 08:05N 67°06' E 013°59'0 0.7
2014-Sep-07 07:33N 67°07' E 013°59'0 0.0
2014-Sep-06 15:23N 67°07' E 013°59'0 0.1
2014-Sep-06 09:28N 67°06' E 013°59'2 1.8
2014-Sep-06 08:29N 67°08' E 013°59'1 0.8
2014-Sep-06 07:32N 67°07' E 013°59'1 0.9
2014-Sep-06 06:13N 67°06' E 013°59'2 2.4
2014-Sep-06 05:31N 67°08' E 013°58'8 7.9
2014-Sep-06 04:33N 67°14' E 014°10'9 9.3
2014-Sep-06 03:33N 67°21' E 014°26'  

Dump ship's entire track history